createdAt,value
2023-02-04T00:01:06.941Z,80.06
2023-02-04T00:06:10.380Z,80.09
2023-02-04T00:11:14.628Z,79.42
2023-02-04T00:16:17.571Z,79.07
2023-02-04T00:21:20.387Z,77.92
2023-02-04T00:26:24.503Z,77.55
2023-02-04T00:31:27.309Z,76.75
2023-02-04T00:36:33.194Z,77.82
2023-02-04T00:41:37.350Z,79.85
2023-02-04T00:46:40.235Z,80.92
2023-02-04T00:51:46.380Z,82.30
2023-02-04T00:56:50.555Z,85.01
2023-02-04T01:01:53.419Z,85.95
2023-02-04T01:06:56.725Z,86.42
2023-02-04T01:12:03.546Z,87.23
2023-02-04T01:17:06.316Z,86.85
2023-02-04T01:22:09.122Z,87.49
2023-02-04T01:27:13.368Z,89.62
2023-02-04T01:32:16.406Z,90.78
2023-02-04T01:37:19.143Z,90.21
2023-02-04T01:42:23.348Z,88.90
2023-02-04T01:47:26.193Z,88.97
2023-02-04T01:52:32.735Z,89.05
2023-02-04T01:57:37.942Z,87.58
2023-02-04T02:02:43.606Z,84.83
2023-02-04T02:07:46.976Z,84.96
2023-02-04T02:12:52.340Z,84.97
2023-02-04T02:17:56.368Z,84.73
2023-02-04T02:23:07.476Z,84.07
2023-02-04T02:28:16.718Z,83.95
2023-02-04T02:33:21.990Z,82.69
2023-02-04T02:38:25.801Z,81.30
2023-02-04T02:43:31.762Z,82.03
2023-02-04T02:48:34.745Z,84.22
2023-02-04T02:53:37.670Z,85.08
2023-02-04T02:58:42.036Z,86.73
2023-02-04T03:03:49.161Z,89.50
2023-02-04T03:08:57.267Z,90.04
2023-02-04T03:14:02.359Z,95.72
2023-02-04T03:19:08.286Z,97.33
2023-02-04T03:24:11.288Z,98.46
2023-02-04T03:29:15.711Z,99.76
2023-02-04T03:34:18.643Z,99.97
2023-02-04T03:39:21.639Z,100.00
2023-02-04T03:44:26.882Z,99.43
2023-02-04T03:49:29.764Z,98.77
2023-02-04T03:54:32.496Z,100.00
2023-02-04T03:59:36.958Z,100.00
2023-02-04T04:04:39.769Z,99.23
2023-02-04T04:09:42.881Z,97.62
2023-02-04T04:14:47.105Z,97.19
2023-02-04T04:19:50.426Z,95.24
2023-02-04T04:24:53.226Z,94.19
2023-02-04T04:29:57.799Z,93.56
2023-02-04T04:35:00.571Z,93.02
2023-02-04T04:40:03.330Z,91.68
2023-02-04T04:45:11.228Z,90.24
2023-02-04T04:50:14.251Z,87.13
2023-02-04T04:55:17.232Z,87.47
2023-02-04T05:00:23.036Z,84.93
2023-02-04T05:05:26.076Z,85.70
2023-02-04T05:10:29.218Z,85.65
2023-02-04T05:15:33.424Z,88.86
2023-02-04T05:20:36.140Z,86.13
2023-02-04T05:25:39.280Z,85.69
2023-02-04T05:30:44.515Z,86.55
2023-02-04T05:35:49.098Z,88.11
2023-02-04T05:40:52.612Z,89.45
2023-02-04T05:45:57.801Z,92.31
2023-02-04T05:51:00.559Z,93.13
2023-02-04T05:56:03.316Z,92.98
2023-02-04T06:01:07.702Z,94.51
2023-02-04T06:06:10.407Z,93.86
2023-02-04T06:11:13.560Z,94.77
2023-02-04T06:16:17.685Z,94.63
2023-02-04T06:21:20.518Z,97.75
2023-02-04T06:26:23.456Z,97.97
2023-02-04T06:31:27.784Z,98.13
2023-02-04T06:36:30.621Z,98.91
2023-02-04T06:41:33.432Z,100.00
2023-02-04T06:46:37.523Z,100.00
2023-02-04T06:51:40.339Z,98.18
2023-02-04T06:56:43.749Z,97.41
2023-02-04T07:01:47.927Z,97.72
2023-02-04T07:06:50.795Z,96.98
2023-02-04T07:11:54.455Z,94.03
2023-02-04T07:16:58.745Z,90.67
2023-02-04T07:22:01.620Z,87.50
2023-02-04T07:27:04.530Z,86.35
2023-02-04T07:32:08.835Z,85.28
2023-02-04T07:37:11.628Z,84.67
2023-02-04T07:42:14.544Z,83.85
2023-02-04T07:47:27.683Z,83.03
2023-02-04T07:52:30.423Z,82.30
2023-02-04T07:57:33.609Z,81.32
2023-02-04T08:02:37.790Z,79.03
2023-02-04T08:07:40.882Z,81.90
2023-02-04T08:12:44.286Z,79.99
2023-02-04T08:17:48.535Z,79.95
2023-02-04T08:22:51.577Z,78.67
2023-02-04T08:27:54.441Z,76.40
2023-02-04T08:32:58.635Z,74.38
2023-02-04T08:38:01.460Z,73.39
2023-02-04T08:43:04.360Z,73.91
2023-02-04T08:48:09.498Z,74.21
2023-02-04T08:53:12.292Z,73.66
2023-02-04T08:58:15.050Z,72.18
2023-02-04T09:03:19.299Z,70.08
2023-02-04T09:08:22.072Z,69.44
2023-02-04T09:13:25.271Z,69.89
2023-02-04T09:18:30.670Z,69.26
2023-02-04T09:23:33.410Z,70.18
2023-02-04T09:28:36.261Z,69.66
2023-02-04T09:33:40.411Z,69.37
2023-02-04T09:38:46.285Z,69.65
2023-02-04T09:43:49.179Z,69.35
2023-02-04T09:48:53.528Z,65.01
2023-02-04T09:54:04.284Z,65.83
2023-02-04T09:59:12.982Z,68.77
2023-02-04T10:04:17.159Z,68.66
2023-02-04T10:09:20.297Z,63.22
2023-02-04T10:14:24.564Z,62.10
2023-02-04T10:19:31.481Z,63.75
2023-02-04T10:24:35.545Z,64.06
2023-02-04T10:29:40.292Z,64.36
2023-02-04T10:34:45.110Z,61.66
2023-02-04T10:39:48.805Z,61.85
2023-02-04T10:44:52.028Z,59.61
2023-02-04T10:49:58.622Z,59.80
2023-02-04T10:55:03.481Z,59.85
2023-02-04T11:00:15.505Z,56.70
2023-02-04T11:05:23.405Z,55.93
2023-02-04T11:10:31.669Z,55.57
2023-02-04T11:15:40.031Z,55.12
2023-02-04T11:20:44.323Z,55.44
2023-02-04T11:25:48.736Z,55.29
2023-02-04T11:31:00.899Z,54.22
2023-02-04T11:36:07.207Z,55.20
2023-02-04T11:41:17.649Z,54.99
2023-02-04T11:46:21.019Z,54.80
2023-02-04T11:51:31.623Z,54.42
2023-02-04T11:56:34.386Z,54.42
2023-02-04T12:01:37.204Z,54.99
2023-02-04T12:06:43.078Z,53.07
2023-02-04T12:11:53.184Z,52.29
2023-02-04T12:16:56.815Z,51.48
2023-02-04T12:22:00.954Z,52.89
2023-02-04T12:27:03.714Z,52.72
2023-02-04T12:32:06.619Z,52.04
2023-02-04T12:37:10.772Z,53.15
2023-02-04T12:42:13.527Z,54.65
2023-02-04T12:47:16.286Z,54.93
2023-02-04T12:52:20.501Z,54.34
2023-02-04T12:57:23.260Z,54.46
2023-02-04T13:02:26.258Z,55.97
2023-02-04T13:07:30.471Z,55.86
2023-02-04T13:12:33.359Z,55.48
2023-02-04T13:17:36.160Z,54.80
2023-02-04T13:22:40.358Z,54.22
2023-02-04T13:27:43.264Z,53.38
2023-02-04T13:32:46.162Z,53.88
2023-02-04T13:37:50.354Z,52.42
2023-02-04T13:42:53.194Z,53.83
2023-02-04T13:47:55.921Z,54.21
2023-02-04T13:53:00.041Z,54.94
2023-02-04T13:58:02.827Z,55.10
2023-02-04T14:03:05.732Z,54.74
2023-02-04T14:08:09.891Z,54.88
2023-02-04T14:13:12.649Z,54.92
2023-02-04T14:18:16.633Z,54.39
2023-02-04T14:23:20.750Z,55.37
2023-02-04T14:28:23.540Z,56.48
2023-02-04T14:33:26.377Z,56.33
2023-02-04T14:38:31.685Z,57.71
2023-02-04T14:43:37.258Z,56.87
2023-02-04T14:48:40.099Z,57.83
2023-02-04T14:53:48.302Z,58.01
2023-02-04T14:58:51.645Z,58.48
2023-02-04T15:03:54.499Z,58.10
2023-02-04T15:08:59.066Z,57.28
2023-02-04T15:14:04.982Z,57.60
2023-02-04T15:19:08.590Z,57.23
2023-02-04T15:24:13.910Z,56.98
2023-02-04T15:29:17.647Z,57.60
2023-02-04T15:34:20.574Z,57.79
2023-02-04T15:39:24.834Z,59.32
2023-02-04T15:44:27.692Z,59.73
2023-02-04T15:49:30.527Z,61.06
2023-02-04T15:54:34.680Z,62.65
2023-02-04T15:59:37.539Z,61.86
2023-02-04T16:04:41.545Z,62.22
2023-02-04T16:09:45.648Z,62.29
2023-02-04T16:14:48.580Z,62.66
2023-02-04T16:19:51.490Z,62.77
2023-02-04T16:24:55.567Z,62.20
2023-02-04T16:29:58.686Z,62.55
2023-02-04T16:35:04.223Z,62.53
2023-02-04T16:40:11.116Z,61.55
2023-02-04T16:45:14.045Z,61.09
2023-02-04T16:50:17.195Z,61.21
2023-02-04T16:55:21.334Z,61.44
2023-02-04T17:00:24.455Z,62.06
2023-02-04T17:05:27.288Z,61.92
2023-02-04T17:10:48.917Z,62.03
2023-02-04T17:15:51.686Z,62.63
2023-02-04T17:20:54.614Z,63.31
2023-02-04T17:25:58.697Z,64.10
2023-02-04T17:31:01.515Z,63.41
2023-02-04T17:36:05.219Z,63.95
2023-02-04T17:41:09.361Z,64.59
2023-02-04T17:46:12.136Z,64.74
2023-02-04T17:51:14.958Z,64.80
2023-02-04T17:56:21.343Z,65.00
2023-02-04T18:01:25.312Z,64.05
2023-02-04T18:06:29.133Z,65.11
2023-02-04T18:11:39.374Z,64.53
2023-02-04T18:16:42.341Z,64.36
2023-02-04T18:21:45.459Z,63.42
2023-02-04T18:26:51.518Z,63.82
2023-02-04T18:31:57.139Z,63.70
2023-02-04T18:37:01.326Z,63.55
2023-02-04T18:42:14.455Z,64.14
2023-02-04T18:47:31.410Z,64.10
2023-02-04T18:52:38.676Z,64.23
2023-02-04T18:57:42.785Z,65.06
2023-02-04T19:02:49.424Z,64.81
2023-02-04T19:07:58.026Z,66.12
2023-02-04T19:13:17.900Z,64.88
2023-02-04T19:18:25.552Z,66.12
2023-02-04T19:23:28.688Z,66.10
2023-02-04T19:28:37.189Z,67.42
2023-02-04T19:33:42.994Z,67.07
2023-02-04T19:38:52.080Z,66.52
2023-02-04T19:44:25.266Z,68.47
2023-02-04T19:49:30.700Z,70.40
2023-02-04T19:54:38.468Z,70.79
2023-02-04T19:59:42.651Z,70.95
2023-02-04T20:04:50.159Z,71.50
2023-02-04T20:09:55.734Z,71.00
2023-02-04T20:15:02.354Z,71.46
2023-02-04T20:20:28.495Z,72.09
2023-02-04T20:25:41.619Z,72.08
2023-02-04T20:30:46.416Z,74.53
2023-02-04T20:36:31.858Z,74.64
2023-02-04T20:41:38.175Z,75.38
2023-02-04T20:46:42.397Z,75.66
2023-02-04T20:51:45.230Z,77.22
2023-02-04T20:56:47.997Z,76.84
2023-02-04T21:01:53.498Z,76.91
2023-02-04T21:07:01.057Z,79.15
2023-02-04T21:12:04.392Z,80.74
2023-02-04T21:17:10.138Z,82.47
2023-02-04T21:22:15.052Z,85.06
2023-02-04T21:27:21.950Z,83.60
2023-02-04T21:32:27.380Z,83.62
2023-02-04T21:37:30.210Z,84.39
2023-02-04T21:42:33.609Z,86.02
2023-02-04T21:47:40.018Z,86.81
2023-02-04T21:52:46.766Z,87.18
2023-02-04T21:57:52.211Z,87.61
2023-02-04T22:02:56.407Z,87.25
2023-02-04T22:07:59.937Z,87.39
2023-02-04T22:13:04.510Z,87.63
2023-02-04T22:18:08.638Z,87.35
2023-02-04T22:23:11.495Z,86.88
2023-02-04T22:28:14.520Z,86.77
2023-02-04T22:33:18.663Z,87.46
2023-02-04T22:38:23.850Z,87.42
2023-02-04T22:43:26.650Z,86.43
2023-02-04T22:48:30.834Z,86.78
2023-02-04T22:53:35.933Z,87.16
2023-02-04T22:58:38.756Z,87.01
2023-02-04T23:03:43.032Z,87.17
2023-02-04T23:08:47.155Z,85.39
2023-02-04T23:13:50.333Z,86.24
2023-02-04T23:18:54.455Z,87.05
2023-02-04T23:23:57.233Z,86.37
2023-02-04T23:29:01.251Z,87.31
2023-02-04T23:34:05.371Z,87.09
2023-02-04T23:39:08.118Z,87.81
2023-02-04T23:44:10.940Z,87.17
2023-02-04T23:49:15.865Z,87.93
2023-02-04T23:54:18.692Z,87.92
2023-02-04T23:59:21.546Z,88.65
